sensor_id;sensor_type;location;lat;lon;timestamp;P1;durP1;ratioP1;P2;durP2;ratioP2
74614;SDS011;63121;51.458;-0.110;2023-05-10T00:01:45;5.93;;;1.70;;
74614;SDS011;63121;51.458;-0.110;2023-05-10T00:04:10;7.23;;;1.77;;
74614;SDS011;63121;51.458;-0.110;2023-05-10T00:06:36;4.80;;;1.60;;
74614;SDS011;63121;51.458;-0.110;2023-05-10T00:09:01;6.43;;;2.00;;
74614;SDS011;63121;51.458;-0.110;2023-05-10T00:11:26;6.53;;;1.95;;
74614;SDS011;63121;51.458;-0.110;2023-05-10T00:13:52;7.93;;;2.23;;
74614;SDS011;63121;51.458;-0.110;2023-05-10T00:16:17;5.95;;;1.83;;
74614;SDS011;63121;51.458;-0.110;2023-05-10T00:18:43;5.60;;;1.77;;
74614;SDS011;63121;51.458;-0.110;2023-05-10T00:21:08;4.88;;;1.70;;
74614;SDS011;63121;51.458;-0.110;2023-05-10T00:23:33;5.57;;;1.87;;
74614;SDS011;63121;51.458;-0.110;2023-05-10T00:25:59;7.32;;;2.03;;
74614;SDS011;63121;51.458;-0.110;2023-05-10T00:28:24;7.10;;;2.03;;
74614;SDS011;63121;51.458;-0.110;2023-05-10T00:30:49;6.27;;;1.87;;
74614;SDS011;63121;51.458;-0.110;2023-05-10T00:33:15;8.57;;;1.90;;
74614;SDS011;63121;51.458;-0.110;2023-05-10T00:35:40;6.60;;;2.03;;
74614;SDS011;63121;51.458;-0.110;2023-05-10T00:38:05;6.80;;;2.00;;
74614;SDS011;63121;51.458;-0.110;2023-05-10T00:40:31;9.85;;;2.80;;
74614;SDS011;63121;51.458;-0.110;2023-05-10T00:42:57;6.50;;;2.20;;
74614;SDS011;63121;51.458;-0.110;2023-05-10T00:45:23;9.00;;;2.95;;
74614;SDS011;63121;51.458;-0.110;2023-05-10T00:47:48;6.22;;;2.00;;
74614;SDS011;63121;51.458;-0.110;2023-05-10T00:50:14;8.80;;;2.65;;
74614;SDS011;63121;51.458;-0.110;2023-05-10T00:52:40;6.85;;;2.42;;
74614;SDS011;63121;51.458;-0.110;2023-05-10T00:55:07;8.68;;;2.35;;
74614;SDS011;63121;51.458;-0.110;2023-05-10T00:57:33;7.40;;;2.50;;
74614;SDS011;63121;51.458;-0.110;2023-05-10T00:59:59;7.33;;;2.73;;
74614;SDS011;63121;51.458;-0.110;2023-05-10T01:02:24;6.72;;;2.40;;
74614;SDS011;63121;51.458;-0.110;2023-05-10T01:04:49;8.10;;;3.15;;
74614;SDS011;63121;51.458;-0.110;2023-05-10T01:09:42;9.13;;;2.93;;
74614;SDS011;63121;51.458;-0.110;2023-05-10T01:12:07;9.98;;;2.78;;
74614;SDS011;63121;51.458;-0.110;2023-05-10T01:14:33;7.78;;;2.90;;
74614;SDS011;63121;51.458;-0.110;2023-05-10T01:16:59;8.60;;;2.95;;
74614;SDS011;63121;51.458;-0.110;2023-05-10T01:19:26;8.40;;;2.67;;
74614;SDS011;63121;51.458;-0.110;2023-05-10T01:22:04;8.30;;;2.58;;
74614;SDS011;63121;51.458;-0.110;2023-05-10T01:30:39;8.23;;;2.75;;
74614;SDS011;63121;51.458;-0.110;2023-05-10T01:33:25;8.65;;;2.80;;
74614;SDS011;63121;51.458;-0.110;2023-05-10T01:35:58;7.93;;;2.60;;
74614;SDS011;63121;51.458;-0.110;2023-05-10T01:41:18;8.68;;;2.67;;
74614;SDS011;63121;51.458;-0.110;2023-05-10T01:43:56;9.55;;;2.90;;
74614;SDS011;63121;51.458;-0.110;2023-05-10T01:46:31;9.90;;;2.95;;
74614;SDS011;63121;51.458;-0.110;2023-05-10T01:49:02;9.00;;;2.88;;
74614;SDS011;63121;51.458;-0.110;2023-05-10T01:51:36;9.38;;;2.67;;
74614;SDS011;63121;51.458;-0.110;2023-05-10T01:54:14;9.90;;;2.90;;
74614;SDS011;63121;51.458;-0.110;2023-05-10T01:56:44;8.15;;;2.33;;
74614;SDS011;63121;51.458;-0.110;2023-05-10T01:59:13;10.48;;;3.45;;
74614;SDS011;63121;51.458;-0.110;2023-05-10T02:01:41;9.30;;;2.47;;
74614;SDS011;63121;51.458;-0.110;2023-05-10T02:04:10;10.30;;;2.72;;
74614;SDS011;63121;51.458;-0.110;2023-05-10T02:06:39;9.02;;;2.65;;
74614;SDS011;63121;51.458;-0.110;2023-05-10T02:09:07;9.48;;;2.83;;
74614;SDS011;63121;51.458;-0.110;2023-05-10T02:11:36;8.43;;;2.75;;
74614;SDS011;63121;51.458;-0.110;2023-05-10T02:14:03;8.57;;;2.85;;
74614;SDS011;63121;51.458;-0.110;2023-05-10T02:16:32;8.35;;;2.70;;
74614;SDS011;63121;51.458;-0.110;2023-05-10T02:19:00;8.95;;;2.83;;
74614;SDS011;63121;51.458;-0.110;2023-05-10T02:21:27;8.63;;;2.83;;
74614;SDS011;63121;51.458;-0.110;2023-05-10T02:23:54;8.05;;;2.47;;
74614;SDS011;63121;51.458;-0.110;2023-05-10T02:26:22;9.25;;;2.60;;
74614;SDS011;63121;51.458;-0.110;2023-05-10T02:28:50;8.05;;;2.40;;
74614;SDS011;63121;51.458;-0.110;2023-05-10T02:31:16;8.63;;;2.33;;
74614;SDS011;63121;51.458;-0.110;2023-05-10T02:33:43;11.90;;;2.97;;
74614;SDS011;63121;51.458;-0.110;2023-05-10T02:36:11;9.48;;;2.78;;
74614;SDS011;63121;51.458;-0.110;2023-05-10T02:38:38;11.27;;;2.70;;
74614;SDS011;63121;51.458;-0.110;2023-05-10T02:41:04;9.85;;;3.20;;
74614;SDS011;63121;51.458;-0.110;2023-05-10T02:43:32;7.38;;;2.60;;
74614;SDS011;63121;51.458;-0.110;2023-05-10T02:45:58;9.07;;;2.92;;
74614;SDS011;63121;51.458;-0.110;2023-05-10T02:48:24;12.20;;;3.10;;
74614;SDS011;63121;51.458;-0.110;2023-05-10T02:50:50;8.45;;;2.67;;
74614;SDS011;63121;51.458;-0.110;2023-05-10T02:53:38;8.43;;;2.40;;
74614;SDS011;63121;51.458;-0.110;2023-05-10T02:56:09;9.45;;;2.53;;
74614;SDS011;63121;51.458;-0.110;2023-05-10T02:58:38;8.90;;;2.90;;
74614;SDS011;63121;51.458;-0.110;2023-05-10T03:01:04;8.88;;;2.78;;
74614;SDS011;63121;51.458;-0.110;2023-05-10T03:03:29;9.85;;;2.65;;
74614;SDS011;63121;51.458;-0.110;2023-05-10T03:05:54;8.77;;;2.40;;
74614;SDS011;63121;51.458;-0.110;2023-05-10T03:08:21;8.68;;;3.05;;
74614;SDS011;63121;51.458;-0.110;2023-05-10T03:10:51;10.63;;;3.00;;
74614;SDS011;63121;51.458;-0.110;2023-05-10T03:13:35;9.98;;;2.88;;
74614;SDS011;63121;51.458;-0.110;2023-05-10T03:16:10;10.18;;;2.70;;
74614;SDS011;63121;51.458;-0.110;2023-05-10T03:21:30;10.25;;;3.13;;
74614;SDS011;63121;51.458;-0.110;2023-05-10T03:23:59;9.52;;;3.22;;
74614;SDS011;63121;51.458;-0.110;2023-05-10T03:26:29;8.50;;;2.45;;
74614;SDS011;63121;51.458;-0.110;2023-05-10T03:28:55;7.63;;;2.83;;
74614;SDS011;63121;51.458;-0.110;2023-05-10T03:31:24;8.43;;;3.38;;
74614;SDS011;63121;51.458;-0.110;2023-05-10T03:33:50;10.88;;;3.47;;
74614;SDS011;63121;51.458;-0.110;2023-05-10T03:36:17;9.48;;;3.13;;
74614;SDS011;63121;51.458;-0.110;2023-05-10T03:38:43;9.00;;;3.17;;
74614;SDS011;63121;51.458;-0.110;2023-05-10T03:41:08;10.27;;;3.20;;
74614;SDS011;63121;51.458;-0.110;2023-05-10T03:43:33;8.63;;;3.23;;
74614;SDS011;63121;51.458;-0.110;2023-05-10T03:46:01;9.55;;;3.28;;
74614;SDS011;63121;51.458;-0.110;2023-05-10T03:48:27;9.68;;;3.08;;
74614;SDS011;63121;51.458;-0.110;2023-05-10T03:50:52;11.60;;;3.50;;
74614;SDS011;63121;51.458;-0.110;2023-05-10T03:53:18;10.93;;;3.50;;
74614;SDS011;63121;51.458;-0.110;2023-05-10T03:55:43;12.63;;;3.27;;
74614;SDS011;63121;51.458;-0.110;2023-05-10T03:58:10;13.32;;;3.60;;
74614;SDS011;63121;51.458;-0.110;2023-05-10T04:00:36;9.50;;;3.00;;
74614;SDS011;63121;51.458;-0.110;2023-05-10T04:03:02;12.13;;;3.35;;
74614;SDS011;63121;51.458;-0.110;2023-05-10T04:05:27;12.50;;;3.83;;
74614;SDS011;63121;51.458;-0.110;2023-05-10T04:07:52;8.70;;;3.20;;
74614;SDS011;63121;51.458;-0.110;2023-05-10T04:10:18;10.68;;;3.50;;
74614;SDS011;63121;51.458;-0.110;2023-05-10T04:12:43;11.85;;;3.47;;
74614;SDS011;63121;51.458;-0.110;2023-05-10T04:15:09;10.95;;;3.50;;
74614;SDS011;63121;51.458;-0.110;2023-05-10T04:17:34;10.63;;;3.85;;
74614;SDS011;63121;51.458;-0.110;2023-05-10T04:20:00;11.63;;;4.00;;
74614;SDS011;63121;51.458;-0.110;2023-05-10T04:22:25;11.37;;;3.67;;
74614;SDS011;63121;51.458;-0.110;2023-05-10T04:24:50;15.60;;;4.05;;
74614;SDS011;63121;51.458;-0.110;2023-05-10T04:27:16;11.97;;;3.67;;
74614;SDS011;63121;51.458;-0.110;2023-05-10T04:29:41;11.27;;;3.85;;
74614;SDS011;63121;51.458;-0.110;2023-05-10T04:32:07;10.87;;;3.33;;
74614;SDS011;63121;51.458;-0.110;2023-05-10T04:34:32;11.02;;;3.95;;
74614;SDS011;63121;51.458;-0.110;2023-05-10T04:36:59;11.70;;;4.03;;
74614;SDS011;63121;51.458;-0.110;2023-05-10T04:39:24;12.35;;;3.78;;
74614;SDS011;63121;51.458;-0.110;2023-05-10T04:41:49;11.60;;;3.90;;
74614;SDS011;63121;51.458;-0.110;2023-05-10T04:44:15;15.03;;;4.37;;
74614;SDS011;63121;51.458;-0.110;2023-05-10T04:46:40;10.93;;;3.92;;
74614;SDS011;63121;51.458;-0.110;2023-05-10T04:49:05;12.23;;;4.13;;
74614;SDS011;63121;51.458;-0.110;2023-05-10T04:51:31;11.80;;;4.20;;
74614;SDS011;63121;51.458;-0.110;2023-05-10T04:53:56;14.10;;;4.80;;
74614;SDS011;63121;51.458;-0.110;2023-05-10T04:56:22;10.70;;;4.05;;
74614;SDS011;63121;51.458;-0.110;2023-05-10T04:58:47;13.63;;;4.63;;
74614;SDS011;63121;51.458;-0.110;2023-05-10T05:01:12;14.40;;;4.77;;
74614;SDS011;63121;51.458;-0.110;2023-05-10T05:03:38;13.20;;;4.37;;
74614;SDS011;63121;51.458;-0.110;2023-05-10T05:06:03;12.00;;;4.77;;
74614;SDS011;63121;51.458;-0.110;2023-05-10T05:08:29;12.48;;;4.30;;
74614;SDS011;63121;51.458;-0.110;2023-05-10T05:10:54;13.40;;;4.95;;
74614;SDS011;63121;51.458;-0.110;2023-05-10T05:13:19;13.73;;;4.60;;
74614;SDS011;63121;51.458;-0.110;2023-05-10T05:15:45;12.35;;;4.78;;
74614;SDS011;63121;51.458;-0.110;2023-05-10T05:18:10;14.93;;;5.30;;
74614;SDS011;63121;51.458;-0.110;2023-05-10T05:20:36;12.85;;;4.50;;
74614;SDS011;63121;51.458;-0.110;2023-05-10T05:23:01;14.83;;;5.03;;
74614;SDS011;63121;51.458;-0.110;2023-05-10T05:25:27;15.63;;;5.40;;
74614;SDS011;63121;51.458;-0.110;2023-05-10T05:27:52;16.23;;;5.45;;
74614;SDS011;63121;51.458;-0.110;2023-05-10T05:30:17;15.77;;;5.25;;
74614;SDS011;63121;51.458;-0.110;2023-05-10T05:32:43;15.60;;;5.57;;
74614;SDS011;63121;51.458;-0.110;2023-05-10T05:35:08;16.05;;;5.22;;
74614;SDS011;63121;51.458;-0.110;2023-05-10T05:37:34;15.35;;;5.63;;
74614;SDS011;63121;51.458;-0.110;2023-05-10T05:40:00;15.68;;;4.82;;
74614;SDS011;63121;51.458;-0.110;2023-05-10T05:42:26;15.55;;;5.93;;
74614;SDS011;63121;51.458;-0.110;2023-05-10T05:44:52;11.10;;;4.40;;
74614;SDS011;63121;51.458;-0.110;2023-05-10T05:47:17;12.87;;;4.53;;
74614;SDS011;63121;51.458;-0.110;2023-05-10T05:49:43;14.53;;;5.30;;
74614;SDS011;63121;51.458;-0.110;2023-05-10T05:52:10;12.43;;;4.80;;
74614;SDS011;63121;51.458;-0.110;2023-05-10T05:54:36;13.32;;;5.47;;
74614;SDS011;63121;51.458;-0.110;2023-05-10T05:57:01;15.30;;;5.23;;
74614;SDS011;63121;51.458;-0.110;2023-05-10T05:59:26;17.15;;;5.78;;
74614;SDS011;63121;51.458;-0.110;2023-05-10T06:01:52;14.50;;;5.72;;
74614;SDS011;63121;51.458;-0.110;2023-05-10T06:04:18;14.70;;;6.03;;
74614;SDS011;63121;51.458;-0.110;2023-05-10T06:06:44;13.02;;;4.70;;
74614;SDS011;63121;51.458;-0.110;2023-05-10T06:09:10;12.05;;;4.88;;
74614;SDS011;63121;51.458;-0.110;2023-05-10T06:11:36;12.15;;;4.60;;
74614;SDS011;63121;51.458;-0.110;2023-05-10T06:14:02;13.10;;;4.45;;
74614;SDS011;63121;51.458;-0.110;2023-05-10T06:16:29;16.92;;;4.80;;
74614;SDS011;63121;51.458;-0.110;2023-05-10T06:18:55;11.98;;;4.65;;
74614;SDS011;63121;51.458;-0.110;2023-05-10T06:21:20;12.13;;;4.28;;
74614;SDS011;63121;51.458;-0.110;2023-05-10T06:23:46;12.25;;;4.47;;
74614;SDS011;63121;51.458;-0.110;2023-05-10T06:26:11;14.07;;;5.22;;
74614;SDS011;63121;51.458;-0.110;2023-05-10T06:28:36;12.60;;;4.95;;
74614;SDS011;63121;51.458;-0.110;2023-05-10T06:31:05;12.70;;;4.45;;
74614;SDS011;63121;51.458;-0.110;2023-05-10T06:33:31;14.57;;;4.65;;
74614;SDS011;63121;51.458;-0.110;2023-05-10T06:35:56;10.50;;;3.83;;
74614;SDS011;63121;51.458;-0.110;2023-05-10T06:38:22;15.20;;;4.90;;
74614;SDS011;63121;51.458;-0.110;2023-05-10T06:40:48;12.13;;;3.72;;
74614;SDS011;63121;51.458;-0.110;2023-05-10T06:43:13;15.45;;;4.25;;
74614;SDS011;63121;51.458;-0.110;2023-05-10T06:45:39;11.23;;;3.78;;
74614;SDS011;63121;51.458;-0.110;2023-05-10T06:48:05;10.77;;;4.07;;
74614;SDS011;63121;51.458;-0.110;2023-05-10T06:50:31;11.13;;;3.58;;
74614;SDS011;63121;51.458;-0.110;2023-05-10T06:52:57;12.90;;;3.70;;
74614;SDS011;63121;51.458;-0.110;2023-05-10T06:55:22;11.45;;;3.60;;
74614;SDS011;63121;51.458;-0.110;2023-05-10T06:57:48;11.85;;;3.75;;
74614;SDS011;63121;51.458;-0.110;2023-05-10T07:00:14;12.15;;;3.50;;
74614;SDS011;63121;51.458;-0.110;2023-05-10T07:02:39;11.30;;;4.28;;
74614;SDS011;63121;51.458;-0.110;2023-05-10T07:05:05;11.00;;;4.15;;
74614;SDS011;63121;51.458;-0.110;2023-05-10T07:07:31;12.85;;;4.03;;
74614;SDS011;63121;51.458;-0.110;2023-05-10T07:09:56;13.57;;;3.67;;
74614;SDS011;63121;51.458;-0.110;2023-05-10T07:12:22;12.18;;;3.50;;
74614;SDS011;63121;51.458;-0.110;2023-05-10T07:14:48;9.60;;;3.55;;
74614;SDS011;63121;51.458;-0.110;2023-05-10T07:17:14;12.18;;;3.17;;
74614;SDS011;63121;51.458;-0.110;2023-05-10T07:19:39;13.18;;;3.28;;
74614;SDS011;63121;51.458;-0.110;2023-05-10T07:22:04;12.65;;;3.00;;
74614;SDS011;63121;51.458;-0.110;2023-05-10T07:24:30;23.30;;;4.32;;
74614;SDS011;63121;51.458;-0.110;2023-05-10T07:26:56;12.07;;;3.00;;
74614;SDS011;63121;51.458;-0.110;2023-05-10T07:29:21;8.35;;;2.53;;
74614;SDS011;63121;51.458;-0.110;2023-05-10T07:31:46;9.57;;;2.77;;
74614;SDS011;63121;51.458;-0.110;2023-05-10T07:34:12;17.47;;;3.20;;
74614;SDS011;63121;51.458;-0.110;2023-05-10T07:36:37;9.63;;;2.20;;
74614;SDS011;63121;51.458;-0.110;2023-05-10T07:39:02;12.10;;;3.08;;
74614;SDS011;63121;51.458;-0.110;2023-05-10T07:41:28;10.98;;;2.63;;
74614;SDS011;63121;51.458;-0.110;2023-05-10T07:43:53;10.32;;;2.67;;
74614;SDS011;63121;51.458;-0.110;2023-05-10T07:46:19;17.47;;;3.73;;
74614;SDS011;63121;51.458;-0.110;2023-05-10T07:48:44;8.90;;;2.25;;
74614;SDS011;63121;51.458;-0.110;2023-05-10T07:51:10;11.65;;;3.03;;
74614;SDS011;63121;51.458;-0.110;2023-05-10T07:53:35;12.52;;;2.45;;
74614;SDS011;63121;51.458;-0.110;2023-05-10T07:56:19;11.15;;;2.95;;
74614;SDS011;63121;51.458;-0.110;2023-05-10T07:58:49;11.43;;;3.10;;
74614;SDS011;63121;51.458;-0.110;2023-05-10T08:01:15;10.45;;;3.30;;
74614;SDS011;63121;51.458;-0.110;2023-05-10T08:03:40;15.03;;;3.30;;
74614;SDS011;63121;51.458;-0.110;2023-05-10T08:06:05;8.70;;;3.00;;
74614;SDS011;63121;51.458;-0.110;2023-05-10T08:08:31;12.10;;;3.25;;
74614;SDS011;63121;51.458;-0.110;2023-05-10T08:10:56;9.87;;;2.90;;
74614;SDS011;63121;51.458;-0.110;2023-05-10T08:13:21;9.97;;;2.77;;
74614;SDS011;63121;51.458;-0.110;2023-05-10T08:15:47;14.40;;;3.47;;
74614;SDS011;63121;51.458;-0.110;2023-05-10T08:18:12;10.75;;;3.47;;
74614;SDS011;63121;51.458;-0.110;2023-05-10T08:20:38;8.85;;;3.13;;
74614;SDS011;63121;51.458;-0.110;2023-05-10T08:23:03;11.43;;;3.42;;
74614;SDS011;63121;51.458;-0.110;2023-05-10T08:25:29;13.07;;;3.40;;
74614;SDS011;63121;51.458;-0.110;2023-05-10T08:27:54;7.43;;;2.78;;
74614;SDS011;63121;51.458;-0.110;2023-05-10T08:30:20;10.40;;;2.80;;
74614;SDS011;63121;51.458;-0.110;2023-05-10T08:32:45;10.20;;;3.05;;
74614;SDS011;63121;51.458;-0.110;2023-05-10T08:35:10;13.47;;;2.67;;
74614;SDS011;63121;51.458;-0.110;2023-05-10T08:37:36;11.10;;;2.92;;
74614;SDS011;63121;51.458;-0.110;2023-05-10T08:40:01;10.10;;;2.80;;
74614;SDS011;63121;51.458;-0.110;2023-05-10T08:42:28;10.10;;;2.83;;
74614;SDS011;63121;51.458;-0.110;2023-05-10T08:44:56;22.23;;;3.95;;
74614;SDS011;63121;51.458;-0.110;2023-05-10T08:47:22;8.27;;;2.10;;
74614;SDS011;63121;51.458;-0.110;2023-05-10T08:49:48;10.82;;;2.60;;
74614;SDS011;63121;51.458;-0.110;2023-05-10T08:52:16;68.10;;;8.88;;
74614;SDS011;63121;51.458;-0.110;2023-05-10T08:54:42;10.93;;;3.17;;
74614;SDS011;63121;51.458;-0.110;2023-05-10T08:57:08;11.05;;;3.05;;
74614;SDS011;63121;51.458;-0.110;2023-05-10T08:59:34;10.85;;;3.08;;
74614;SDS011;63121;51.458;-0.110;2023-05-10T09:01:59;10.85;;;2.70;;
74614;SDS011;63121;51.458;-0.110;2023-05-10T09:04:27;10.95;;;2.97;;
74614;SDS011;63121;51.458;-0.110;2023-05-10T09:06:53;8.07;;;2.50;;
74614;SDS011;63121;51.458;-0.110;2023-05-10T09:09:19;8.10;;;2.58;;
74614;SDS011;63121;51.458;-0.110;2023-05-10T09:11:46;12.85;;;3.00;;
74614;SDS011;63121;51.458;-0.110;2023-05-10T09:14:12;8.52;;;3.03;;
74614;SDS011;63121;51.458;-0.110;2023-05-10T09:16:39;9.73;;;2.53;;
74614;SDS011;63121;51.458;-0.110;2023-05-10T09:21:31;8.93;;;2.72;;
74614;SDS011;63121;51.458;-0.110;2023-05-10T09:24:02;10.70;;;2.63;;
74614;SDS011;63121;51.458;-0.110;2023-05-10T09:26:28;9.70;;;2.92;;
74614;SDS011;63121;51.458;-0.110;2023-05-10T09:28:55;12.47;;;3.03;;
74614;SDS011;63121;51.458;-0.110;2023-05-10T09:31:22;9.05;;;2.67;;
74614;SDS011;63121;51.458;-0.110;2023-05-10T09:33:50;9.75;;;2.80;;
74614;SDS011;63121;51.458;-0.110;2023-05-10T09:36:16;11.27;;;3.33;;
74614;SDS011;63121;51.458;-0.110;2023-05-10T09:38:51;9.60;;;2.90;;
74614;SDS011;63121;51.458;-0.110;2023-05-10T09:41:21;11.13;;;3.55;;
74614;SDS011;63121;51.458;-0.110;2023-05-10T09:43:47;9.88;;;2.63;;
74614;SDS011;63121;51.458;-0.110;2023-05-10T09:46:13;8.30;;;2.70;;
74614;SDS011;63121;51.458;-0.110;2023-05-10T09:48:40;10.98;;;3.20;;
74614;SDS011;63121;51.458;-0.110;2023-05-10T09:51:10;9.45;;;3.47;;
74614;SDS011;63121;51.458;-0.110;2023-05-10T09:53:35;11.50;;;4.07;;
74614;SDS011;63121;51.458;-0.110;2023-05-10T09:56:01;9.50;;;3.50;;
74614;SDS011;63121;51.458;-0.110;2023-05-10T09:58:26;8.90;;;2.72;;
74614;SDS011;63121;51.458;-0.110;2023-05-10T10:00:52;9.77;;;2.90;;
74614;SDS011;63121;51.458;-0.110;2023-05-10T10:03:19;9.43;;;2.80;;
74614;SDS011;63121;51.458;-0.110;2023-05-10T10:05:46;11.05;;;3.47;;
74614;SDS011;63121;51.458;-0.110;2023-05-10T10:08:13;10.20;;;3.08;;
74614;SDS011;63121;51.458;-0.110;2023-05-10T10:10:40;8.68;;;3.00;;
74614;SDS011;63121;51.458;-0.110;2023-05-10T10:13:06;11.77;;;3.08;;
74614;SDS011;63121;51.458;-0.110;2023-05-10T10:15:32;10.95;;;2.47;;
74614;SDS011;63121;51.458;-0.110;2023-05-10T10:17:59;10.07;;;2.60;;
74614;SDS011;63121;51.458;-0.110;2023-05-10T10:20:25;9.35;;;2.17;;
74614;SDS011;63121;51.458;-0.110;2023-05-10T10:22:51;9.70;;;2.92;;
74614;SDS011;63121;51.458;-0.110;2023-05-10T10:25:17;10.27;;;2.97;;
74614;SDS011;63121;51.458;-0.110;2023-05-10T10:35:53;8.30;;;2.70;;
74614;SDS011;63121;51.458;-0.110;2023-05-10T10:38:20;8.00;;;2.83;;
74614;SDS011;63121;51.458;-0.110;2023-05-10T10:40:46;11.15;;;3.10;;
74614;SDS011;63121;51.458;-0.110;2023-05-10T10:43:24;12.52;;;2.80;;
74614;SDS011;63121;51.458;-0.110;2023-05-10T10:48:49;12.75;;;2.42;;
74614;SDS011;63121;51.458;-0.110;2023-05-10T10:51:32;9.02;;;2.40;;
74614;SDS011;63121;51.458;-0.110;2023-05-10T10:54:09;7.38;;;2.30;;
74614;SDS011;63121;51.458;-0.110;2023-05-10T10:56:35;8.57;;;2.42;;
74614;SDS011;63121;51.458;-0.110;2023-05-10T10:59:00;8.98;;;2.15;;
74614;SDS011;63121;51.458;-0.110;2023-05-10T11:01:26;7.47;;;1.92;;
74614;SDS011;63121;51.458;-0.110;2023-05-10T11:06:33;7.47;;;2.03;;
74614;SDS011;63121;51.458;-0.110;2023-05-10T11:09:06;7.28;;;2.08;;
74614;SDS011;63121;51.458;-0.110;2023-05-10T11:11:33;7.05;;;2.42;;
74614;SDS011;63121;51.458;-0.110;2023-05-10T11:14:06;8.38;;;2.00;;
74614;SDS011;63121;51.458;-0.110;2023-05-10T11:19:11;7.80;;;2.13;;
74614;SDS011;63121;51.458;-0.110;2023-05-10T11:21:45;6.20;;;1.58;;
74614;SDS011;63121;51.458;-0.110;2023-05-10T11:24:15;7.32;;;1.77;;
74614;SDS011;63121;51.458;-0.110;2023-05-10T11:26:41;7.68;;;2.03;;
74614;SDS011;63121;51.458;-0.110;2023-05-10T11:29:07;6.07;;;1.77;;
74614;SDS011;63121;51.458;-0.110;2023-05-10T11:31:32;7.40;;;1.60;;
74614;SDS011;63121;51.458;-0.110;2023-05-10T11:33:58;10.40;;;1.83;;
74614;SDS011;63121;51.458;-0.110;2023-05-10T11:36:25;6.40;;;1.67;;
74614;SDS011;63121;51.458;-0.110;2023-05-10T11:38:52;6.05;;;1.65;;
74614;SDS011;63121;51.458;-0.110;2023-05-10T11:41:18;6.38;;;1.75;;
74614;SDS011;63121;51.458;-0.110;2023-05-10T11:43:49;7.03;;;1.58;;
74614;SDS011;63121;51.458;-0.110;2023-05-10T11:46:16;7.60;;;2.00;;
74614;SDS011;63121;51.458;-0.110;2023-05-10T11:48:45;6.25;;;1.67;;
74614;SDS011;63121;51.458;-0.110;2023-05-10T11:51:11;10.40;;;2.15;;
74614;SDS011;63121;51.458;-0.110;2023-05-10T11:53:37;6.78;;;1.77;;
74614;SDS011;63121;51.458;-0.110;2023-05-10T11:56:06;10.18;;;2.30;;
74614;SDS011;63121;51.458;-0.110;2023-05-10T11:58:33;9.77;;;2.00;;
74614;SDS011;63121;51.458;-0.110;2023-05-10T12:00:59;6.97;;;1.80;;
74614;SDS011;63121;51.458;-0.110;2023-05-10T12:03:25;6.60;;;1.83;;
74614;SDS011;63121;51.458;-0.110;2023-05-10T12:05:52;6.10;;;1.50;;
74614;SDS011;63121;51.458;-0.110;2023-05-10T12:08:24;5.40;;;1.50;;
74614;SDS011;63121;51.458;-0.110;2023-05-10T12:10:51;5.43;;;1.50;;
74614;SDS011;63121;51.458;-0.110;2023-05-10T12:13:17;4.63;;;1.33;;
74614;SDS011;63121;51.458;-0.110;2023-05-10T12:15:44;6.75;;;1.55;;
74614;SDS011;63121;51.458;-0.110;2023-05-10T12:18:10;5.65;;;1.60;;
74614;SDS011;63121;51.458;-0.110;2023-05-10T12:20:36;6.53;;;1.40;;
74614;SDS011;63121;51.458;-0.110;2023-05-10T12:23:02;7.40;;;1.67;;
74614;SDS011;63121;51.458;-0.110;2023-05-10T12:25:32;6.95;;;1.50;;
74614;SDS011;63121;51.458;-0.110;2023-05-10T12:27:59;7.07;;;1.75;;
74614;SDS011;63121;51.458;-0.110;2023-05-10T12:30:28;6.43;;;1.70;;
74614;SDS011;63121;51.458;-0.110;2023-05-10T12:33:00;7.53;;;1.90;;
74614;SDS011;63121;51.458;-0.110;2023-05-10T12:35:25;7.88;;;1.63;;
74614;SDS011;63121;51.458;-0.110;2023-05-10T12:37:51;6.38;;;1.70;;
74614;SDS011;63121;51.458;-0.110;2023-05-10T12:40:16;9.32;;;2.15;;
74614;SDS011;63121;51.458;-0.110;2023-05-10T12:42:42;4.70;;;1.40;;
74614;SDS011;63121;51.458;-0.110;2023-05-10T12:45:09;8.18;;;1.80;;
74614;SDS011;63121;51.458;-0.110;2023-05-10T12:47:35;3.78;;;1.15;;
74614;SDS011;63121;51.458;-0.110;2023-05-10T12:50:01;4.78;;;1.40;;
74614;SDS011;63121;51.458;-0.110;2023-05-10T12:52:27;8.20;;;1.67;;
74614;SDS011;63121;51.458;-0.110;2023-05-10T12:54:53;8.32;;;1.50;;
74614;SDS011;63121;51.458;-0.110;2023-05-10T12:57:21;7.70;;;1.73;;
74614;SDS011;63121;51.458;-0.110;2023-05-10T12:59:47;4.90;;;1.52;;
74614;SDS011;63121;51.458;-0.110;2023-05-10T13:02:12;7.10;;;1.83;;
74614;SDS011;63121;51.458;-0.110;2023-05-10T13:04:39;7.63;;;2.20;;
74614;SDS011;63121;51.458;-0.110;2023-05-10T13:07:05;9.30;;;2.20;;
74614;SDS011;63121;51.458;-0.110;2023-05-10T13:09:31;8.52;;;2.10;;
74614;SDS011;63121;51.458;-0.110;2023-05-10T13:11:57;8.18;;;2.15;;
74614;SDS011;63121;51.458;-0.110;2023-05-10T13:14:22;8.68;;;1.98;;
74614;SDS011;63121;51.458;-0.110;2023-05-10T13:16:48;7.03;;;1.90;;
74614;SDS011;63121;51.458;-0.110;2023-05-10T13:19:13;6.43;;;1.80;;
74614;SDS011;63121;51.458;-0.110;2023-05-10T13:21:39;4.65;;;1.45;;
74614;SDS011;63121;51.458;-0.110;2023-05-10T13:24:07;6.50;;;1.70;;
74614;SDS011;63121;51.458;-0.110;2023-05-10T13:26:33;6.57;;;1.88;;
74614;SDS011;63121;51.458;-0.110;2023-05-10T13:28:58;5.55;;;1.30;;
74614;SDS011;63121;51.458;-0.110;2023-05-10T13:31:24;3.60;;;1.00;;
74614;SDS011;63121;51.458;-0.110;2023-05-10T13:33:49;6.40;;;1.25;;
74614;SDS011;63121;51.458;-0.110;2023-05-10T13:36:15;2.03;;;0.90;;
74614;SDS011;63121;51.458;-0.110;2023-05-10T13:38:40;4.38;;;1.00;;
74614;SDS011;63121;51.458;-0.110;2023-05-10T13:41:06;3.93;;;1.30;;
74614;SDS011;63121;51.458;-0.110;2023-05-10T13:43:31;8.88;;;1.60;;
74614;SDS011;63121;51.458;-0.110;2023-05-10T13:45:56;5.00;;;1.30;;
74614;SDS011;63121;51.458;-0.110;2023-05-10T13:48:22;9.52;;;2.08;;
74614;SDS011;63121;51.458;-0.110;2023-05-10T13:50:47;8.18;;;1.77;;
74614;SDS011;63121;51.458;-0.110;2023-05-10T13:53:12;6.20;;;1.45;;
74614;SDS011;63121;51.458;-0.110;2023-05-10T13:55:39;5.97;;;1.33;;
74614;SDS011;63121;51.458;-0.110;2023-05-10T13:58:04;5.60;;;1.67;;
74614;SDS011;63121;51.458;-0.110;2023-05-10T14:00:29;7.97;;;1.63;;
74614;SDS011;63121;51.458;-0.110;2023-05-10T14:02:55;6.95;;;1.73;;
74614;SDS011;63121;51.458;-0.110;2023-05-10T14:05:21;4.65;;;1.38;;
74614;SDS011;63121;51.458;-0.110;2023-05-10T14:07:46;6.78;;;1.63;;
74614;SDS011;63121;51.458;-0.110;2023-05-10T14:10:12;6.45;;;1.40;;
74614;SDS011;63121;51.458;-0.110;2023-05-10T14:12:37;10.23;;;1.73;;
74614;SDS011;63121;51.458;-0.110;2023-05-10T14:15:03;6.68;;;1.52;;
74614;SDS011;63121;51.458;-0.110;2023-05-10T14:17:30;24.83;;;2.50;;
74614;SDS011;63121;51.458;-0.110;2023-05-10T14:19:56;7.70;;;1.65;;
74614;SDS011;63121;51.458;-0.110;2023-05-10T14:22:21;6.93;;;1.40;;
74614;SDS011;63121;51.458;-0.110;2023-05-10T14:24:47;5.32;;;1.25;;
74614;SDS011;63121;51.458;-0.110;2023-05-10T14:27:13;4.18;;;1.15;;
74614;SDS011;63121;51.458;-0.110;2023-05-10T14:29:38;5.85;;;1.00;;
74614;SDS011;63121;51.458;-0.110;2023-05-10T14:32:03;3.65;;;1.20;;
74614;SDS011;63121;51.458;-0.110;2023-05-10T14:34:29;4.18;;;1.17;;
74614;SDS011;63121;51.458;-0.110;2023-05-10T14:36:54;5.00;;;1.23;;
74614;SDS011;63121;51.458;-0.110;2023-05-10T14:39:20;6.65;;;1.58;;
74614;SDS011;63121;51.458;-0.110;2023-05-10T14:41:45;6.13;;;1.10;;
74614;SDS011;63121;51.458;-0.110;2023-05-10T14:46:37;9.37;;;1.57;;
74614;SDS011;63121;51.458;-0.110;2023-05-10T14:49:03;4.13;;;1.15;;
74614;SDS011;63121;51.458;-0.110;2023-05-10T14:51:28;3.25;;;0.93;;
74614;SDS011;63121;51.458;-0.110;2023-05-10T14:53:54;8.88;;;1.30;;
74614;SDS011;63121;51.458;-0.110;2023-05-10T14:56:20;3.83;;;1.13;;
74614;SDS011;63121;51.458;-0.110;2023-05-10T14:58:46;4.93;;;1.25;;
74614;SDS011;63121;51.458;-0.110;2023-05-10T15:01:11;4.23;;;1.20;;